Time;durP1;ratioP1;P1;durP2;ratioP2;P2;SDS_P1;SDS_P2;PMS_P1;PMS_P2;Temp;Humidity;BMP_temperature;BMP_pressure;BME280_temperature;BME280_humidity;BME280_pressure;Samples;Min_cycle;Max_cycle;Signal;HPM_P1;HPM_P2
2021/12/26 00:00:18;;;;;;;2.05;1.30;;;22.10;53.60;;;;;;5096027;28;20045;-68
2021/12/26 00:02:44;;;;;;;2.25;1.08;;;22.00;53.50;;;;;;5096063;28;20064;-68
2021/12/26 00:05:11;;;;;;;1.10;1.00;;;22.00;53.40;;;;;;5096057;28;20104;-68
2021/12/26 00:07:37;;;;;;;1.58;1.23;;;21.80;53.40;;;;;;5096076;28;20038;-68
2021/12/26 00:10:06;;;;;;;1.35;1.00;;;22.00;53.60;;;;;;5096015;28;20048;-68
2021/12/26 00:12:32;;;;;;;1.13;1.02;;;22.00;53.60;;;;;;5095964;28;20045;-68
2021/12/26 00:14:59;;;;;;;1.10;1.00;;;21.90;53.40;;;;;;5094927;28;20052;-68
2021/12/26 00:17:25;;;;;;;1.75;1.00;;;22.00;53.40;;;;;;5096039;28;20048;-68
2021/12/26 00:19:51;;;;;;;1.65;1.23;;;22.00;53.40;;;;;;5095974;28;20040;-68
2021/12/26 00:22:17;;;;;;;1.02;1.02;;;21.90;53.40;;;;;;5095080;28;20066;-68
2021/12/26 00:24:45;;;;;;;1.20;1.10;;;22.00;53.30;;;;;;5095639;28;20048;-68
2021/12/26 00:27:13;;;;;;;1.52;1.20;;;22.00;53.20;;;;;;5095791;28;20056;-68
2021/12/26 00:29:39;;;;;;;1.13;1.00;;;22.00;53.10;;;;;;5095571;28;20055;-68
2021/12/26 00:32:06;;;;;;;1.30;1.13;;;22.00;53.10;;;;;;5095483;28;20040;-68
2021/12/26 00:34:34;;;;;;;1.27;1.08;;;21.90;53.00;;;;;;5097106;28;20048;-67
2021/12/26 00:37:00;;;;;;;1.58;1.13;;;22.00;52.90;;;;;;5098579;28;20044;-67
2021/12/26 00:39:26;;;;;;;1.23;1.15;;;22.00;52.80;;;;;;5099364;28;20044;-67
2021/12/26 00:41:53;;;;;;;0.82;0.82;;;21.80;52.80;;;;;;5099302;28;20104;-69
2021/12/26 00:44:20;;;;;;;1.20;1.10;;;21.70;52.70;;;;;;5098934;28;20036;-69
2021/12/26 00:46:46;;;;;;;1.33;1.23;;;21.80;52.80;;;;;;5099251;28;20073;-70
2021/12/26 00:49:12;;;;;;;1.83;1.33;;;21.80;52.70;;;;;;5099195;28;20131;-70
2021/12/26 00:51:39;;;;;;;1.70;0.90;;;21.70;52.70;;;;;;5097493;28;20040;-70
2021/12/26 00:54:07;;;;;;;0.90;0.90;;;21.70;52.60;;;;;;5099036;28;20055;-70
2021/12/26 00:56:33;;;;;;;1.05;0.95;;;21.70;52.80;;;;;;5098428;28;20069;-70
2021/12/26 00:58:59;;;;;;;1.02;0.93;;;21.70;52.60;;;;;;5098942;28;20048;-69
2021/12/26 01:01:25;;;;;;;1.30;1.00;;;21.70;52.60;;;;;;5098025;28;20037;-70
2021/12/26 01:03:51;;;;;;;0.90;0.90;;;21.60;52.30;;;;;;5098372;28;20064;-70
2021/12/26 01:06:18;;;;;;;1.20;1.10;;;21.80;52.60;;;;;;5098219;28;20043;-70
2021/12/26 01:08:48;;;;;;;1.13;1.02;;;21.80;52.60;;;;;;5098921;28;20093;-70
2021/12/26 01:11:24;;;;;;;3.60;0.90;;;21.90;52.60;;;;;;5098990;28;20059;-71
2021/12/26 01:13:51;;;;;;;0.85;0.85;;;21.80;52.50;;;;;;5098275;28;20389;-71
2021/12/26 01:16:48;;;;;;;1.10;1.00;;;21.80;52.40;;;;;;5098369;28;20048;-70
2021/12/26 01:19:18;;;;;;;1.75;1.10;;;21.80;52.40;;;;;;5097844;28;20058;-70
2021/12/26 01:21:45;;;;;;;1.73;1.20;;;21.70;52.10;;;;;;5098246;28;20033;-70
2021/12/26 01:24:15;;;;;;;1.50;0.95;;;21.80;51.90;;;;;;5097800;28;20058;-70
2021/12/26 01:26:42;;;;;;;3.30;1.13;;;21.90;51.90;;;;;;5098015;28;20036;-70
2021/12/26 01:29:11;;;;;;;1.20;1.10;;;21.80;51.80;;;;;;5098053;28;20040;-70
2021/12/26 01:31:41;;;;;;;1.27;1.00;;;21.60;51.80;;;;;;5098005;28;20032;-70
2021/12/26 01:34:26;;;;;;;0.75;0.75;;;21.60;51.90;;;;;;5098063;28;20052;-70
2021/12/26 01:37:05;;;;;;;1.08;1.00;;;21.70;51.90;;;;;;5097837;28;20051;-69
2021/12/26 01:39:57;;;;;;;0.60;0.60;;;21.50;51.80;;;;;;5097046;28;20037;-69
2021/12/26 01:42:50;;;;;;;1.17;0.90;;;21.60;51.80;;;;;;5097873;28;20096;-70
2021/12/26 01:45:35;;;;;;;1.08;1.00;;;21.50;51.80;;;;;;5096563;28;20055;-70
2021/12/26 01:48:05;;;;;;;1.05;0.98;;;21.40;51.70;;;;;;5097369;28;20051;-69
2021/12/26 01:50:36;;;;;;;1.00;1.00;;;21.40;51.70;;;;;;5097260;28;20074;-69
2021/12/26 01:53:05;;;;;;;1.35;0.95;;;21.50;51.80;;;;;;5097604;28;20052;-69
2021/12/26 01:55:44;;;;;;;1.00;1.00;;;21.50;51.70;;;;;;5097276;28;20040;-69
2021/12/26 01:58:15;;;;;;;1.10;1.00;;;21.50;51.60;;;;;;5097446;28;20054;-69
2021/12/26 02:00:45;;;;;;;0.88;0.80;;;21.60;51.40;;;;;;5097051;28;20051;-70
2021/12/26 02:03:12;;;;;;;1.77;1.00;;;21.50;51.40;;;;;;5097076;28;20044;-70
2021/12/26 02:05:38;;;;;;;1.10;1.00;;;21.50;51.40;;;;;;5097059;28;20118;-69
2021/12/26 02:08:08;;;;;;;1.23;1.02;;;21.50;51.10;;;;;;5097085;28;20044;-69
2021/12/26 02:10:34;;;;;;;1.63;1.30;;;21.50;51.10;;;;;;5097238;28;20048;-69
2021/12/26 02:13:01;;;;;;;1.05;1.05;;;21.50;51.00;;;;;;5097164;28;20044;-69
2021/12/26 02:15:29;;;;;;;1.48;1.33;;;21.50;50.90;;;;;;5096627;28;20048;-70
2021/12/26 02:18:06;;;;;;;1.90;1.08;;;21.40;50.80;;;;;;5097093;28;20104;-69
2021/12/26 02:20:44;;;;;;;1.70;1.13;;;21.60;50.90;;;;;;5097506;28;20100;-69
2021/12/26 02:23:17;;;;;;;1.67;1.25;;;21.40;50.90;;;;;;5096713;28;20103;-70
2021/12/26 02:28:15;;;;;;;1.30;1.20;;;21.30;50.90;;;;;;5096819;28;20104;-69
2021/12/26 02:30:42;;;;;;;1.30;1.15;;;21.30;50.90;;;;;;5097458;28;20104;-69
2021/12/26 02:33:11;;;;;;;1.10;1.00;;;21.30;50.90;;;;;;5097005;28;20056;-69
2021/12/26 02:35:39;;;;;;;1.30;1.20;;;21.30;50.90;;;;;;5096999;28;20075;-69
2021/12/26 02:38:06;;;;;;;1.20;1.10;;;21.30;50.80;;;;;;5096649;28;20051;-69
2021/12/26 02:40:33;;;;;;;1.20;1.10;;;21.20;50.80;;;;;;5096554;28;20056;-69
2021/12/26 02:42:59;;;;;;;1.20;1.10;;;21.30;50.60;;;;;;5096237;28;20082;-69
2021/12/26 02:45:25;;;;;;;2.50;1.08;;;21.40;50.60;;;;;;5096275;28;20063;-70
2021/12/26 02:47:52;;;;;;;1.10;1.02;;;21.50;50.60;;;;;;5096581;28;20028;-70
2021/12/26 02:50:23;;;;;;;0.85;0.77;;;21.50;50.60;;;;;;5096124;28;20064;-69
2021/12/26 02:52:51;;;;;;;1.17;1.08;;;21.40;50.50;;;;;;5097099;28;20050;-68
2021/12/26 02:55:19;;;;;;;1.05;1.00;;;21.30;50.30;;;;;;5096387;28;20143;-69
2021/12/26 02:57:51;;;;;;;3.33;0.90;;;21.30;50.40;;;;;;5095717;28;20049;-70
2021/12/26 03:00:21;;;;;;;1.67;1.33;;;21.30;50.30;;;;;;5096332;28;20136;-70
2021/12/26 03:02:50;;;;;;;0.93;0.93;;;21.30;50.30;;;;;;5096897;28;20066;-70
2021/12/26 03:05:17;;;;;;;1.60;1.00;;;21.20;50.20;;;;;;5096539;28;20036;-70
2021/12/26 03:07:45;;;;;;;1.25;1.15;;;21.20;50.20;;;;;;5096310;28;20043;-70
2021/12/26 03:10:21;;;;;;;1.40;1.30;;;21.30;50.40;;;;;;5096734;28;20044;-70
2021/12/26 03:13:08;;;;;;;2.70;1.23;;;21.10;50.30;;;;;;5079540;28;20056;-69
2021/12/26 03:15:34;;;;;;;1.25;1.13;;;21.00;50.20;;;;;;5096129;28;20051;-69
2021/12/26 03:18:01;;;;;;;2.65;1.50;;;21.20;50.30;;;;;;5095922;28;20061;-69
2021/12/26 03:20:31;;;;;;;1.10;1.00;;;21.10;50.20;;;;;;5095931;28;20048;-70
2021/12/26 03:23:00;;;;;;;1.10;1.00;;;21.10;50.20;;;;;;5095749;28;20043;-69
2021/12/26 03:25:29;;;;;;;2.05;1.02;;;21.10;50.20;;;;;;5095401;28;20048;-70
2021/12/26 03:27:55;;;;;;;1.35;1.00;;;21.20;50.10;;;;;;5096729;28;20044;-70
2021/12/26 03:30:25;;;;;;;1.63;1.40;;;21.20;50.00;;;;;;5096079;28;20037;-69
2021/12/26 03:32:53;;;;;;;2.80;1.10;;;21.30;50.00;;;;;;5075643;28;20129;-69
2021/12/26 03:35:22;;;;;;;1.50;0.98;;;21.30;49.90;;;;;;5076454;28;20063;-69
2021/12/26 03:37:48;;;;;;;2.20;1.42;;;21.10;49.70;;;;;;5076559;28;20049;-69
2021/12/26 03:40:36;;;;;;;1.27;1.13;;;21.30;49.80;;;;;;5075488;28;20057;-70
2021/12/26 03:43:02;;;;;;;1.10;1.00;;;21.20;49.60;;;;;;5075792;28;20033;-70
2021/12/26 03:45:29;;;;;;;1.63;1.30;;;21.30;49.70;;;;;;5075535;28;20045;-70
2021/12/26 03:47:55;;;;;;;2.03;1.23;;;21.10;49.50;;;;;;5075736;28;20033;-70
2021/12/26 03:50:24;;;;;;;1.00;1.00;;;21.00;49.50;;;;;;5075736;28;20071;-69
2021/12/26 03:52:50;;;;;;;1.45;1.23;;;21.10;49.70;;;;;;5075236;28;20041;-70
2021/12/26 03:55:20;;;;;;;1.88;0.98;;;21.00;49.50;;;;;;5075570;28;20104;-69
2021/12/26 03:57:46;;;;;;;1.20;1.00;;;21.00;49.60;;;;;;5075523;28;20048;-70
2021/12/26 04:00:14;;;;;;;1.90;1.30;;;21.00;49.70;;;;;;5108855;28;20060;-69
2021/12/26 04:02:44;;;;;;;1.15;1.05;;;20.90;49.70;;;;;;5076163;28;20048;-69
2021/12/26 04:05:12;;;;;;;1.40;1.27;;;20.90;49.70;;;;;;5075289;28;20172;-69
2021/12/26 04:07:39;;;;;;;1.50;1.40;;;20.90;49.60;;;;;;5076092;28;20041;-69
2021/12/26 04:10:07;;;;;;;2.75;1.27;;;20.90;49.50;;;;;;5078986;28;20068;-69
2021/12/26 04:12:42;;;;;;;2.53;1.30;;;21.00;49.50;;;;;;5079215;28;20105;-70
2021/12/26 04:15:13;;;;;;;1.40;1.13;;;21.10;49.50;;;;;;5062381;28;20045;-70
2021/12/26 04:17:40;;;;;;;1.67;1.52;;;20.90;49.40;;;;;;5080081;28;20069;-69
2021/12/26 04:20:07;;;;;;;1.40;1.30;;;21.00;49.30;;;;;;5079259;28;20040;-69
2021/12/26 04:22:33;;;;;;;2.92;1.92;;;21.00;49.20;;;;;;5078956;28;20041;-69
2021/12/26 04:25:01;;;;;;;5.35;1.80;;;21.00;49.20;;;;;;5079024;28;20086;-70
2021/12/26 04:27:27;;;;;;;1.85;1.50;;;21.00;49.20;;;;;;5079346;28;20063;-70
2021/12/26 04:29:53;;;;;;;4.30;3.22;;;21.10;49.10;;;;;;5079391;28;20032;-70
2021/12/26 04:32:21;;;;;;;5.68;3.58;;;21.10;49.10;;;;;;5095542;28;20041;-70
2021/12/26 04:34:48;;;;;;;1.75;1.63;;;21.10;48.90;;;;;;5099176;28;20052;-69
2021/12/26 04:37:15;;;;;;;2.60;1.70;;;21.00;48.90;;;;;;5099183;28;20733;-69
2021/12/26 04:39:41;;;;;;;2.50;1.92;;;21.00;49.00;;;;;;5099309;28;20048;-69
2021/12/26 04:42:08;;;;;;;1.60;1.20;;;20.90;49.20;;;;;;5099324;28;20067;-69
2021/12/26 04:44:55;;;;;;;2.63;1.33;;;21.00;49.20;;;;;;5099309;28;20083;-69
2021/12/26 04:47:51;;;;;;;2.42;1.63;;;21.10;49.00;;;;;;5094445;28;20036;-69
2021/12/26 04:50:24;;;;;;;3.60;1.83;;;21.20;49.20;;;;;;5098329;28;20043;-69
2021/12/26 04:52:57;;;;;;;5.22;2.00;;;21.40;49.10;;;;;;5097463;28;20052;-69
2021/12/26 04:55:26;;;;;;;2.90;1.73;;;21.10;49.40;;;;;;5098738;28;20048;-69
2021/12/26 04:57:52;;;;;;;2.28;1.88;;;21.30;49.20;;;;;;5098690;28;20040;-72
2021/12/26 05:00:22;;;;;;;2.75;1.60;;;21.30;49.50;;;;;;5099193;28;20051;-72
2021/12/26 05:02:49;;;;;;;1.17;1.08;;;21.50;48.40;;;;;;5098235;28;20059;-72
2021/12/26 05:05:16;;;;;;;2.20;1.40;;;21.70;46.50;;;;;;5098411;28;20048;-71
2021/12/26 05:07:43;;;;;;;2.22;2.03;;;22.10;47.10;;;;;;5098289;28;20127;-69
2021/12/26 05:10:11;;;;;;;4.40;1.65;;;22.60;46.90;;;;;;5098305;28;20044;-69
2021/12/26 05:12:39;;;;;;;2.35;1.52;;;22.90;48.00;;;;;;5098018;28;20051;-68
2021/12/26 05:15:10;;;;;;;2.78;2.13;;;22.90;43.50;;;;;;5097501;28;20052;-68
2021/12/26 05:17:40;;;;;;;3.72;2.00;;;22.90;51.00;;;;;;5097423;28;20060;-68
2021/12/26 05:20:09;;;;;;;5.60;3.13;;;23.00;43.50;;;;;;5096789;28;20048;-69
2021/12/26 05:22:35;;;;;;;2.15;1.80;;;23.00;41.40;;;;;;5097304;28;20079;-69
2021/12/26 05:25:03;;;;;;;4.15;2.35;;;22.90;40.20;;;;;;5098021;28;20036;-69
2021/12/26 05:27:30;;;;;;;2.78;2.33;;;23.00;39.20;;;;;;5097483;28;20048;-68
2021/12/26 05:29:56;;;;;;;2.88;2.10;;;22.80;37.90;;;;;;5097280;28;20040;-68
2021/12/26 05:32:23;;;;;;;2.53;1.80;;;22.70;36.90;;;;;;5097173;28;20048;-70
2021/12/26 05:34:50;;;;;;;2.35;1.90;;;22.40;37.60;;;;;;5096602;28;20077;-70
2021/12/26 05:37:16;;;;;;;2.47;2.10;;;22.20;38.50;;;;;;5096323;28;20048;-70
2021/12/26 05:39:45;;;;;;;2.38;1.88;;;22.00;39.40;;;;;;5096939;28;20032;-71
2021/12/26 05:42:16;;;;;;;2.85;1.77;;;21.80;40.20;;;;;;5096764;28;20043;-70
2021/12/26 05:44:43;;;;;;;2.00;1.83;;;21.70;41.50;;;;;;5096811;28;20040;-71
2021/12/26 05:47:10;;;;;;;2.05;1.75;;;21.60;42.20;;;;;;5096904;28;20037;-70
2021/12/26 05:49:57;;;;;;;3.45;2.15;;;21.60;43.10;;;;;;5097362;28;20033;-70
2021/12/26 05:52:25;;;;;;;3.88;2.05;;;21.40;43.60;;;;;;5096391;28;20125;-69
2021/12/26 05:55:05;;;;;;;2.67;2.13;;;21.30;44.20;;;;;;5096786;28;20052;-70
2021/12/26 05:57:32;;;;;;;2.78;2.10;;;21.30;44.50;;;;;;5096700;28;20055;-69
2021/12/26 05:59:58;;;;;;;2.85;2.22;;;21.40;44.90;;;;;;5096479;28;20115;-71
2021/12/26 06:02:24;;;;;;;8.15;4.53;;;21.20;45.30;;;;;;5096462;28;20040;-70
2021/12/26 06:04:53;;;;;;;10.38;5.30;;;21.30;46.00;;;;;;5097107;28;20134;-70
2021/12/26 06:07:19;;;;;;;10.88;5.85;;;21.20;46.10;;;;;;5095846;28;20066;-70
2021/12/26 06:09:47;;;;;;;8.45;5.28;;;21.30;46.30;;;;;;5096145;28;20099;-71
2021/12/26 06:12:13;;;;;;;5.53;4.03;;;21.40;46.20;;;;;;5096225;28;20044;-70
2021/12/26 06:14:40;;;;;;;8.60;3.97;;;21.30;47.30;;;;;;5096099;28;20040;-69
2021/12/26 06:17:06;;;;;;;6.80;2.92;;;21.30;39.30;;;;;;5096289;28;20044;-70
2021/12/26 06:19:51;;;;;;;4.22;2.95;;;21.40;39.00;;;;;;5096877;28;20063;-70
2021/12/26 06:22:33;;;;;;;2.83;1.42;;;21.50;38.70;;;;;;5096182;28;20096;-69
2021/12/26 06:25:07;;;;;;;2.80;1.97;;;21.60;38.80;;;;;;5096963;28;20056;-70
2021/12/26 06:27:46;;;;;;;2.63;1.92;;;21.80;39.80;;;;;;5079239;28;20466;-70
2021/12/26 06:30:35;;;;;;;1.10;0.90;;;22.00;39.90;;;;;;5086238;28;20099;-69
2021/12/26 06:33:20;;;;;;;2.38;1.70;;;22.00;39.10;;;;;;5093679;28;20116;-69
2021/12/26 06:36:06;;;;;;;2.13;1.60;;;22.10;38.80;;;;;;5094472;28;20062;-70
2021/12/26 06:38:34;;;;;;;3.55;1.73;;;22.20;37.90;;;;;;5096104;28;20032;-70
2021/12/26 06:41:18;;;;;;;2.70;1.77;;;22.40;38.20;;;;;;5093889;28;20040;-70
2021/12/26 06:44:05;;;;;;;1.73;1.25;;;22.20;37.40;;;;;;5095528;28;20063;-70
2021/12/26 06:46:58;;;;;;;4.22;1.27;;;22.40;37.50;;;;;;5094675;28;20037;-70
2021/12/26 06:49:33;;;;;;;1.65;1.02;;;22.30;39.10;;;;;;5091352;28;20094;-70
2021/12/26 06:51:59;;;;;;;2.88;1.60;;;22.40;38.40;;;;;;5075451;28;20966;-70
2021/12/26 06:54:26;;;;;;;1.42;1.17;;;22.40;37.60;;;;;;5075687;28;20049;-69
2021/12/26 06:56:52;;;;;;;1.50;1.40;;;22.30;35.40;;;;;;5075856;28;20068;-69
2021/12/26 06:59:18;;;;;;;5.68;1.40;;;22.30;35.60;;;;;;5075782;28;20037;-70
2021/12/26 07:01:44;;;;;;;2.25;2.03;;;22.30;34.80;;;;;;5075094;28;20037;-69
2021/12/26 07:04:13;;;;;;;3.60;1.85;;;22.50;50.30;;;;;;5074851;28;20032;-70
2021/12/26 07:06:40;;;;;;;2.97;2.08;;;22.40;51.60;;;;;;5075273;28;20052;-70
2021/12/26 07:09:13;;;;;;;3.33;2.30;;;22.60;51.40;;;;;;5093133;28;20100;-70
2021/12/26 07:11:39;;;;;;;2.78;2.20;;;22.20;51.60;;;;;;5096071;28;20040;-70
2021/12/26 07:14:08;;;;;;;4.18;2.05;;;22.20;52.20;;;;;;5095037;28;20508;-71
2021/12/26 07:16:34;;;;;;;3.20;1.85;;;22.10;52.50;;;;;;5095337;28;20032;-71
2021/12/26 07:19:01;;;;;;;3.85;2.42;;;22.10;53.10;;;;;;5095325;28;20051;-70
2021/12/26 07:21:35;;;;;;;3.15;2.30;;;21.90;53.10;;;;;;5094927;28;20047;-70
2021/12/26 07:24:06;;;;;;;3.90;2.40;;;21.90;56.50;;;;;;5094951;28;20033;-71
2021/12/26 07:26:33;;;;;;;6.25;2.67;;;21.80;55.20;;;;;;5095348;28;20037;-70
2021/12/26 07:29:00;;;;;;;4.40;2.67;;;21.70;55.40;;;;;;5095286;28;20044;-72
2021/12/26 07:31:32;;;;;;;4.00;2.47;;;21.60;55.60;;;;;;5095077;28;20057;-76
2021/12/26 07:34:03;;;;;;;1.65;1.55;;;21.50;57.30;;;;;;5094713;28;20068;-78
2021/12/26 07:36:30;;;;;;;4.18;2.60;;;21.70;57.40;;;;;;5095288;28;20047;-77
2021/12/26 07:39:19;;;;;;;21.48;8.85;;;21.90;55.40;;;;;;5095152;28;20068;-77
2021/12/26 07:41:45;;;;;;;10.15;4.85;;;22.20;52.40;;;;;;5095674;28;20036;-76
2021/12/26 07:44:30;;;;;;;6.63;3.50;;;22.30;50.70;;;;;;5099729;28;20043;-75
2021/12/26 07:47:35;;;;;;;5.22;3.28;;;22.40;48.80;;;;;;5099265;28;20108;-73
2021/12/26 07:50:03;;;;;;;4.93;3.08;;;22.60;47.60;;;;;;5099729;28;20044;-72
2021/12/26 07:52:49;;;;;;;6.70;3.55;;;22.60;46.30;;;;;;5099780;28;20052;-68
2021/12/26 07:55:33;;;;;;;4.72;2.95;;;22.60;45.10;;;;;;5098208;28;20040;-68
2021/12/26 07:58:18;;;;;;;5.78;3.40;;;22.80;44.60;;;;;;5099418;28;20128;-68
2021/12/26 08:01:13;;;;;;;4.60;3.00;;;22.70;44.50;;;;;;5096335;28;20048;-69
2021/12/26 08:04:00;;;;;;;3.25;2.80;;;22.80;44.40;;;;;;5097895;28;20039;-68
2021/12/26 08:07:02;;;;;;;3.97;2.60;;;22.80;44.20;;;;;;5096043;28;20104;-69
2021/12/26 08:09:28;;;;;;;4.13;2.78;;;22.90;44.10;;;;;;5096975;28;20060;-68
2021/12/26 08:11:54;;;;;;;3.20;2.00;;;22.90;43.80;;;;;;5097287;28;20047;-69
2021/12/26 08:14:21;;;;;;;4.53;2.42;;;23.00;43.60;;;;;;5097885;28;20036;-69
2021/12/26 08:16:48;;;;;;;2.53;2.28;;;23.00;43.50;;;;;;5099273;28;20052;-69
2021/12/26 08:19:14;;;;;;;3.70;2.90;;;23.00;43.30;;;;;;5099040;28;20056;-68
2021/12/26 08:21:40;;;;;;;5.25;2.92;;;23.00;43.20;;;;;;5098992;28;20047;-69
2021/12/26 08:24:07;;;;;;;7.30;3.55;;;23.00;43.00;;;;;;5098900;28;20104;-69
2021/12/26 08:26:33;;;;;;;5.45;3.13;;;23.00;42.90;;;;;;5099132;28;20046;-69
2021/12/26 08:28:59;;;;;;;4.20;2.42;;;23.00;42.80;;;;;;5099140;28;20033;-70
2021/12/26 08:31:25;;;;;;;5.68;3.45;;;22.90;42.70;;;;;;5099080;28;20045;-70
2021/12/26 08:33:52;;;;;;;7.53;3.33;;;23.00;42.50;;;;;;5098578;28;20056;-69
2021/12/26 08:36:19;;;;;;;2.33;2.13;;;22.90;42.30;;;;;;5098447;28;20040;-69
2021/12/26 08:38:46;;;;;;;2.22;2.03;;;23.00;42.10;;;;;;5099046;28;20036;-69
2021/12/26 08:41:12;;;;;;;3.50;2.40;;;23.10;42.10;;;;;;5098740;28;20070;-69
2021/12/26 08:43:43;;;;;;;5.00;2.78;;;23.00;41.90;;;;;;5098392;28;20060;-69
2021/12/26 08:46:12;;;;;;;5.72;4.13;;;23.00;41.70;;;;;;5098824;28;20048;-68
2021/12/26 08:48:39;;;;;;;5.50;3.20;;;23.00;41.50;;;;;;5097949;28;20029;-68
2021/12/26 08:51:05;;;;;;;4.35;3.70;;;22.90;41.40;;;;;;5098486;28;20048;-69
2021/12/26 08:53:31;;;;;;;5.50;3.50;;;22.70;42.20;;;;;;5098559;28;20044;-69
2021/12/26 08:55:59;;;;;;;5.25;3.63;;;22.40;43.20;;;;;;5097639;28;20056;-71
2021/12/26 08:58:26;;;;;;;8.65;3.85;;;22.30;44.40;;;;;;5098238;28;20043;-71
2021/12/26 09:00:52;;;;;;;2.83;2.50;;;22.20;45.30;;;;;;5098477;28;20048;-71
2021/12/26 09:03:19;;;;;;;5.10;3.42;;;22.00;45.90;;;;;;5098149;28;20062;-70
2021/12/26 09:05:45;;;;;;;3.42;2.78;;;21.90;46.60;;;;;;5098208;28;20037;-71
2021/12/26 09:08:12;;;;;;;3.65;2.95;;;21.80;48.00;;;;;;5098217;28;20040;-70
2021/12/26 09:10:39;;;;;;;5.15;2.72;;;21.70;48.10;;;;;;5098121;28;20068;-71
2021/12/26 09:13:06;;;;;;;3.78;2.80;;;21.60;48.30;;;;;;5098027;28;20055;-71
2021/12/26 09:15:32;;;;;;;3.67;2.67;;;21.60;48.90;;;;;;5098122;28;20040;-71
2021/12/26 09:17:59;;;;;;;4.93;3.22;;;21.50;49.30;;;;;;5098205;28;20036;-70
2021/12/26 09:20:26;;;;;;;4.47;2.80;;;21.40;49.60;;;;;;5098091;28;20075;-71
2021/12/26 09:22:52;;;;;;;4.18;2.95;;;21.30;50.00;;;;;;5097890;28;20032;-71
2021/12/26 09:25:20;;;;;;;3.60;2.72;;;21.20;50.50;;;;;;5097839;28;20041;-72
2021/12/26 09:27:46;;;;;;;4.95;3.30;;;21.20;51.20;;;;;;5098059;28;20041;-72
2021/12/26 09:30:13;;;;;;;3.70;2.78;;;21.10;52.20;;;;;;5097958;28;20075;-70
2021/12/26 09:32:40;;;;;;;5.32;3.22;;;21.10;52.10;;;;;;5097684;28;20049;-75
2021/12/26 09:35:07;;;;;;;6.40;3.00;;;21.10;52.00;;;;;;5097766;28;20048;-71
2021/12/26 09:37:34;;;;;;;5.50;3.58;;;21.10;52.20;;;;;;5097783;28;20104;-72
2021/12/26 09:40:00;;;;;;;5.43;3.70;;;21.10;52.20;;;;;;5097763;28;20119;-71
2021/12/26 09:42:27;;;;;;;4.80;2.80;;;21.00;52.00;;;;;;5097454;28;20068;-71
2021/12/26 09:44:54;;;;;;;5.45;3.22;;;21.10;52.20;;;;;;5096988;28;20036;-74
2021/12/26 09:47:20;;;;;;;4.68;2.88;;;21.20;52.50;;;;;;5097696;28;20033;-71
2021/12/26 09:49:46;;;;;;;5.65;3.38;;;21.20;50.80;;;;;;5097218;28;20405;-70
2021/12/26 09:52:12;;;;;;;5.47;3.97;;;21.30;51.00;;;;;;5097192;28;20055;-71
2021/12/26 09:54:40;;;;;;;4.22;3.20;;;21.20;51.30;;;;;;5096568;28;20048;-72
2021/12/26 09:57:06;;;;;;;4.93;1.92;;;21.20;47.10;;;;;;5096826;28;20046;-72
2021/12/26 09:59:32;;;;;;;4.95;2.35;;;21.60;44.80;;;;;;5095609;28;20040;-73
2021/12/26 10:02:08;;;;;;;4.03;2.65;;;21.90;47.50;;;;;;5096338;28;20036;-72
2021/12/26 10:04:39;;;;;;;5.75;2.03;;;22.20;40.70;;;;;;5096544;28;20051;-73
2021/12/26 10:07:12;;;;;;;7.00;3.78;;;22.40;39.80;;;;;;5095130;28;20037;-73
2021/12/26 10:09:41;;;;;;;9.07;5.25;;;22.50;44.80;;;;;;5097147;28;20048;-71
2021/12/26 10:12:09;;;;;;;8.38;4.50;;;22.60;48.10;;;;;;5096897;28;20252;-71
2021/12/26 10:14:38;;;;;;;8.55;4.80;;;22.60;52.30;;;;;;5097045;28;20037;-71
2021/12/26 10:17:10;;;;;;;6.90;4.10;;;22.80;55.00;;;;;;5096062;28;20037;-70
2021/12/26 10:19:39;;;;;;;9.00;4.40;;;22.90;51.90;;;;;;5095248;28;20043;-71
2021/12/26 10:22:07;;;;;;;7.28;4.03;;;23.10;58.20;;;;;;5095415;28;20041;-70
2021/12/26 10:24:37;;;;;;;7.43;4.07;;;23.40;53.10;;;;;;5095040;28;20029;-70
2021/12/26 10:27:16;;;;;;;11.95;5.35;;;23.10;51.10;;;;;;5095602;28;20044;-70
2021/12/26 10:29:42;;;;;;;10.98;7.00;;;22.90;51.20;;;;;;5096135;28;20036;-70
2021/12/26 10:32:11;;;;;;;7.68;4.60;;;22.80;51.40;;;;;;5095766;28;20040;-72
2021/12/26 10:34:50;;;;;;;5.90;4.57;;;22.60;52.00;;;;;;5094271;28;20074;-72
2021/12/26 10:37:30;;;;;;;5.22;4.43;;;22.60;52.70;;;;;;5095572;28;20108;-72
2021/12/26 10:39:59;;;;;;;20.83;11.50;;;22.50;53.40;;;;;;5094785;28;20036;-72
2021/12/26 10:42:31;;;;;;;9.57;6.22;;;22.40;53.60;;;;;;5094844;28;20028;-73
2021/12/26 10:45:01;;;;;;;7.28;4.90;;;22.40;54.40;;;;;;5095899;28;20054;-69
2021/12/26 10:47:30;;;;;;;6.85;4.88;;;22.30;54.60;;;;;;5096220;28;20059;-68
2021/12/26 10:50:03;;;;;;;5.65;4.72;;;22.40;55.30;;;;;;5094779;28;20079;-68
2021/12/26 10:52:31;;;;;;;5.85;3.92;;;22.40;55.30;;;;;;5094451;28;20032;-68
2021/12/26 10:55:07;;;;;;;11.93;5.25;;;22.40;56.00;;;;;;5094264;28;20059;-69
2021/12/26 10:57:37;;;;;;;9.20;6.30;;;22.40;56.80;;;;;;5094921;28;20047;-76
2021/12/26 11:00:15;;;;;;;9.57;6.05;;;22.60;57.80;;;;;;5096260;28;20075;-68
2021/12/26 11:02:45;;;;;;;18.00;8.63;;;22.90;55.40;;;;;;5095579;28;20037;-68
2021/12/26 11:05:14;;;;;;;6.72;3.67;;;23.00;61.80;;;;;;5095985;28;20047;-68
2021/12/26 11:07:44;;;;;;;5.55;3.17;;;23.40;48.50;;;;;;5095789;28;20051;-68
2021/12/26 11:10:21;;;;;;;5.80;3.90;;;23.50;46.70;;;;;;5095942;28;20063;-68
2021/12/26 11:12:50;;;;;;;6.90;2.90;;;23.60;39.50;;;;;;5095729;28;20126;-69
2021/12/26 11:15:20;;;;;;;3.47;2.70;;;23.80;42.10;;;;;;5094906;28;20070;-68
2021/12/26 11:18:00;;;;;;;3.38;2.75;;;23.80;39.40;;;;;;5095065;28;20036;-68
2021/12/26 11:20:31;;;;;;;4.22;3.30;;;23.80;38.20;;;;;;5095118;28;20075;-68
2021/12/26 11:22:59;;;;;;;5.03;3.10;;;23.90;38.00;;;;;;5093102;28;20184;-68
2021/12/26 11:25:26;;;;;;;4.10;2.88;;;24.00;39.50;;;;;;5095225;28;20074;-68
2021/12/26 11:27:53;;;;;;;5.10;2.97;;;23.80;37.40;;;;;;5092308;28;20107;-68
2021/12/26 11:30:20;;;;;;;4.88;3.65;;;23.90;39.20;;;;;;5095040;28;20048;-70
2021/12/26 11:32:47;;;;;;;8.07;3.35;;;24.10;47.00;;;;;;5094885;28;20048;-70
2021/12/26 11:35:14;;;;;;;5.13;3.90;;;24.50;47.20;;;;;;5093998;28;20109;-69
2021/12/26 11:37:40;;;;;;;3.78;2.63;;;24.50;48.40;;;;;;5094537;28;20070;-70
2021/12/26 11:40:25;;;;;;;7.15;5.60;;;24.60;49.70;;;;;;5093969;28;20096;-69
2021/12/26 11:43:45;;;;;;;8.30;5.13;;;24.70;45.60;;;;;;5095585;28;20109;-69
2021/12/26 11:47:09;;;;;;;9.38;6.20;;;25.00;45.70;;;;;;5089400;28;20040;-70
2021/12/26 11:50:13;;;;;;;7.20;5.80;;;25.10;46.20;;;;;;5094162;28;20037;-68
2021/12/26 11:53:08;;;;;;;8.93;4.88;;;25.30;46.70;;;;;;5085266;28;20101;-67
2021/12/26 11:56:03;;;;;;;7.25;5.97;;;25.30;47.00;;;;;;5092299;28;20052;-66
2021/12/26 11:58:59;;;;;;;6.35;4.97;;;25.30;47.10;;;;;;5095119;28;20103;-67
2021/12/26 12:01:28;;;;;;;6.72;5.20;;;25.20;47.40;;;;;;5095155;28;20063;-67
2021/12/26 12:04:15;;;;;;;10.88;6.72;;;25.10;47.80;;;;;;5094923;28;20047;-67
2021/12/26 12:06:41;;;;;;;9.00;6.43;;;24.80;49.10;;;;;;5095197;28;20040;-69
2021/12/26 12:09:31;;;;;;;9.65;6.50;;;24.70;49.50;;;;;;5095515;28;20040;-69
2021/12/26 12:12:04;;;;;;;11.27;6.60;;;24.40;50.40;;;;;;5094483;28;20052;-69
2021/12/26 12:14:59;;;;;;;8.00;5.53;;;24.30;51.00;;;;;;5095557;28;20043;-70
2021/12/26 12:17:26;;;;;;;8.40;5.75;;;24.20;51.60;;;;;;5094805;28;20063;-70
2021/12/26 12:20:14;;;;;;;8.23;6.00;;;24.00;52.30;;;;;;5094989;28;20044;-70
2021/12/26 12:23:02;;;;;;;10.55;7.55;;;23.80;52.90;;;;;;5095371;28;20154;-69
2021/12/26 12:25:35;;;;;;;10.10;6.97;;;23.80;53.40;;;;;;5095112;28;20071;-69
2021/12/26 12:28:07;;;;;;;11.50;7.20;;;23.60;53.40;;;;;;5094875;28;20040;-69
2021/12/26 12:30:33;;;;;;;9.68;6.53;;;23.50;53.20;;;;;;5096837;28;20045;-70
2021/12/26 12:33:25;;;;;;;7.40;5.82;;;23.60;53.50;;;;;;5095199;28;20067;-69
2021/12/26 12:36:03;;;;;;;8.05;5.63;;;23.40;53.60;;;;;;5094955;28;20055;-70
2021/12/26 12:38:47;;;;;;;10.75;6.07;;;23.40;53.80;;;;;;5099063;28;20036;-70
2021/12/26 12:41:35;;;;;;;9.13;6.43;;;23.40;54.00;;;;;;5098338;28;20071;-69
2021/12/26 12:44:06;;;;;;;7.75;6.15;;;23.30;54.70;;;;;;5097950;28;20461;-71
2021/12/26 12:46:59;;;;;;;13.63;6.88;;;23.30;55.50;;;;;;5097938;28;20040;-71
2021/12/26 12:49:48;;;;;;;10.60;7.70;;;23.20;56.30;;;;;;5097331;28;20124;-71
2021/12/26 12:52:42;;;;;;;10.57;7.75;;;23.20;56.50;;;;;;5097373;28;20139;-70
2021/12/26 12:55:10;;;;;;;8.85;7.00;;;23.10;57.10;;;;;;5096807;28;20055;-71
2021/12/26 12:57:42;;;;;;;10.60;6.97;;;23.10;57.70;;;;;;5096687;28;20066;-71
2021/12/26 13:00:29;;;;;;;8.65;5.47;;;23.00;57.70;;;;;;5096547;28;20040;-71
2021/12/26 13:02:59;;;;;;;9.88;6.38;;;23.00;56.80;;;;;;5097323;28;20062;-71
2021/12/26 13:05:36;;;;;;;10.40;6.07;;;22.90;56.00;;;;;;5097096;28;20060;-71
2021/12/26 13:08:09;;;;;;;9.55;4.85;;;22.80;55.70;;;;;;5096594;28;20040;-71
2021/12/26 13:10:36;;;;;;;8.38;4.55;;;22.80;55.70;;;;;;5097268;28;20055;-70